createdAt,value
2018-09-25T00:01:43.479Z,8.60
2018-09-25T00:04:17.126Z,8.50
2018-09-25T00:06:50.735Z,8.40
2018-09-25T00:09:24.325Z,8.40
2018-09-25T00:11:57.987Z,8.40
2018-09-25T00:14:31.614Z,8.40
2018-09-25T00:17:05.343Z,8.40
2018-09-25T00:19:39.053Z,8.40
2018-09-25T00:22:12.738Z,8.40
2018-09-25T00:24:46.477Z,8.40
2018-09-25T00:27:20.204Z,8.40
2018-09-25T00:29:53.874Z,8.40
2018-09-25T00:32:27.455Z,8.40
2018-09-25T00:35:01.160Z,8.30
2018-09-25T00:37:35.117Z,8.30
2018-09-25T00:40:08.773Z,8.30
2018-09-25T00:42:42.365Z,8.20
2018-09-25T00:45:15.986Z,8.10
2018-09-25T00:47:49.656Z,8.10
2018-09-25T00:50:23.374Z,8.00
2018-09-25T00:52:57.028Z,8.00
2018-09-25T00:55:30.642Z,8.00
2018-09-25T00:58:04.215Z,8.00
2018-09-25T01:00:37.878Z,8.00
2018-09-25T01:03:11.733Z,8.00
2018-09-25T01:05:45.321Z,8.00
2018-09-25T01:08:19.052Z,8.00
2018-09-25T01:10:52.630Z,8.00
2018-09-25T01:13:26.268Z,8.00
2018-09-25T01:15:59.699Z,8.00
2018-09-25T01:18:39.966Z,8.00
2018-09-25T01:21:13.446Z,8.00
2018-09-25T01:23:47.199Z,8.00
2018-09-25T01:26:20.905Z,8.10
2018-09-25T01:28:54.570Z,8.10
2018-09-25T01:31:28.225Z,8.10
2018-09-25T01:34:01.862Z,8.00
2018-09-25T01:36:35.392Z,7.90
2018-09-25T01:39:10.264Z,7.80
2018-09-25T01:41:43.996Z,7.80
2018-09-25T01:44:17.702Z,7.70
2018-09-25T01:46:51.248Z,7.60
2018-09-25T01:49:24.972Z,7.60
2018-09-25T01:51:58.605Z,7.50
2018-09-25T01:54:32.210Z,7.50
2018-09-25T01:57:05.933Z,7.40
2018-09-25T01:59:39.475Z,7.30
2018-09-25T02:02:13.236Z,7.30
2018-09-25T02:04:46.842Z,7.30
2018-09-25T02:07:20.820Z,7.30
2018-09-25T02:09:54.500Z,7.30
2018-09-25T02:12:28.138Z,7.30
2018-09-25T02:15:01.771Z,7.30
2018-09-25T02:17:35.454Z,7.40
2018-09-25T02:20:09.149Z,7.40
2018-09-25T02:22:42.867Z,7.30
2018-09-25T02:25:16.510Z,7.10
2018-09-25T02:27:50.249Z,7.10
2018-09-25T02:30:23.949Z,7.10
2018-09-25T02:32:57.395Z,7.00
2018-09-25T02:35:31.099Z,7.10
2018-09-25T02:38:04.859Z,7.10
2018-09-25T02:40:38.465Z,7.10
2018-09-25T02:43:12.185Z,7.10
2018-09-25T02:45:45.757Z,7.10
2018-09-25T02:48:19.547Z,7.20
2018-09-25T02:50:53.426Z,7.20
2018-09-25T02:53:27.078Z,7.30
2018-09-25T02:56:00.817Z,7.40
2018-09-25T02:58:34.433Z,7.40
2018-09-25T03:01:08.012Z,7.50
2018-09-25T03:03:41.703Z,7.40
2018-09-25T03:06:15.462Z,7.30
2018-09-25T03:08:49.119Z,7.10
2018-09-25T03:11:22.762Z,7.00
2018-09-25T03:13:56.245Z,6.80
2018-09-25T03:16:29.950Z,6.80
2018-09-25T03:19:03.551Z,6.70
2018-09-25T03:21:37.071Z,6.50
2018-09-25T03:24:11.065Z,6.60
2018-09-25T03:26:44.759Z,6.60
2018-09-25T03:29:18.460Z,6.50
2018-09-25T03:31:52.065Z,6.50
2018-09-25T03:34:25.746Z,6.60
2018-09-25T03:36:59.450Z,6.70
2018-09-25T03:39:33.335Z,6.70
2018-09-25T03:42:06.885Z,6.80
2018-09-25T03:44:40.558Z,6.80
2018-09-25T03:47:15.174Z,6.80
2018-09-25T03:49:48.750Z,6.70
2018-09-25T03:52:22.348Z,6.60
2018-09-25T03:54:56.089Z,6.40
2018-09-25T03:57:29.673Z,6.30
2018-09-25T04:00:03.327Z,6.20
2018-09-25T04:02:37.064Z,6.10
2018-09-25T04:05:10.826Z,6.10
2018-09-25T04:07:44.536Z,6.10
2018-09-25T04:10:18.592Z,6.20
2018-09-25T04:12:52.142Z,6.10
2018-09-25T04:15:29.396Z,6.20
2018-09-25T04:18:03.583Z,6.20
2018-09-25T04:20:37.630Z,6.30
2018-09-25T04:23:11.159Z,6.40
2018-09-25T04:25:44.798Z,6.40
2018-09-25T04:28:18.490Z,6.40
2018-09-25T04:30:52.254Z,6.40
2018-09-25T04:33:26.065Z,6.40
2018-09-25T04:35:59.620Z,6.30
2018-09-25T04:38:33.267Z,6.30
2018-09-25T04:41:07.103Z,6.30
2018-09-25T04:43:40.735Z,6.20
2018-09-25T04:46:14.718Z,6.20
2018-09-25T04:48:48.445Z,6.00
2018-09-25T04:51:22.644Z,6.00
2018-09-25T04:53:56.176Z,6.00
2018-09-25T04:56:29.853Z,6.00
2018-09-25T04:59:04.484Z,6.00
2018-09-25T05:01:38.202Z,6.10
2018-09-25T05:04:11.793Z,6.10
2018-09-25T05:06:45.552Z,6.10
2018-09-25T05:09:19.150Z,6.00
2018-09-25T05:11:52.897Z,6.10
2018-09-25T05:14:26.459Z,6.10
2018-09-25T05:17:00.236Z,6.10
2018-09-25T05:19:34.371Z,6.10
2018-09-25T05:22:08.405Z,6.10
2018-09-25T05:24:42.356Z,6.10
2018-09-25T05:27:16.010Z,6.20
2018-09-25T05:29:49.798Z,6.20
2018-09-25T05:32:23.445Z,6.30
2018-09-25T05:34:57.386Z,6.40
2018-09-25T05:37:30.903Z,6.50
2018-09-25T05:40:04.410Z,6.50
2018-09-25T05:42:38.975Z,6.50
2018-09-25T05:45:12.667Z,6.60
2018-09-25T05:47:48.262Z,6.70
2018-09-25T05:50:21.879Z,6.80
2018-09-25T05:52:55.598Z,6.90
2018-09-25T05:55:29.348Z,7.00
2018-09-25T05:58:03.063Z,7.20
2018-09-25T06:00:36.849Z,7.30
2018-09-25T06:03:10.449Z,7.40
2018-09-25T06:05:44.184Z,7.50
2018-09-25T06:08:17.962Z,7.60
2018-09-25T06:10:52.136Z,7.60
2018-09-25T06:13:26.175Z,7.60
2018-09-25T06:15:59.873Z,7.70
2018-09-25T06:18:33.623Z,7.70
2018-09-25T06:21:07.187Z,7.80
2018-09-25T06:23:40.846Z,7.80
2018-09-25T06:26:14.656Z,7.90
2018-09-25T06:28:48.209Z,8.00
2018-09-25T06:31:21.799Z,8.10
2018-09-25T06:33:55.427Z,8.10
2018-09-25T06:36:28.993Z,8.30
2018-09-25T06:39:02.790Z,8.40
2018-09-25T06:41:36.398Z,8.40
2018-09-25T06:44:10.117Z,8.60
2018-09-25T06:46:43.796Z,8.90
2018-09-25T06:49:17.411Z,9.20
2018-09-25T06:51:51.109Z,9.50
2018-09-25T06:54:24.708Z,9.60
2018-09-25T06:56:58.498Z,9.70
2018-09-25T06:59:32.017Z,10.10
2018-09-25T07:02:05.618Z,10.10
2018-09-25T07:04:39.180Z,10.00
2018-09-25T07:07:12.956Z,10.00
2018-09-25T07:09:46.826Z,10.00
2018-09-25T07:12:27.355Z,10.20
2018-09-25T07:15:01.111Z,10.20
2018-09-25T07:17:35.402Z,10.30
2018-09-25T07:20:09.065Z,10.40
2018-09-25T07:22:43.013Z,10.70
2018-09-25T07:25:16.706Z,10.80
2018-09-25T07:27:50.337Z,10.90
2018-09-25T07:30:24.033Z,10.90
2018-09-25T07:32:57.788Z,10.90
2018-09-25T07:35:31.590Z,10.90
2018-09-25T07:38:05.190Z,10.90
2018-09-25T07:40:38.841Z,10.90
2018-09-25T07:43:12.497Z,11.40
2018-09-25T07:45:46.195Z,11.70
2018-09-25T07:48:19.939Z,12.20
2018-09-25T07:50:53.557Z,11.50
2018-09-25T07:53:27.228Z,11.20
2018-09-25T07:56:00.969Z,11.30
2018-09-25T07:58:34.708Z,11.50
2018-09-25T08:01:08.432Z,12.00
2018-09-25T08:03:42.222Z,12.20
2018-09-25T08:06:15.854Z,12.60
2018-09-25T08:08:49.533Z,12.10
2018-09-25T08:11:23.258Z,12.50
2018-09-25T08:13:56.837Z,12.40
2018-09-25T08:16:30.509Z,12.50
2018-09-25T08:19:04.346Z,12.00
2018-09-25T08:21:38.100Z,12.30
2018-09-25T08:24:11.806Z,12.50
2018-09-25T08:26:45.374Z,12.60
2018-09-25T08:29:18.983Z,12.60
2018-09-25T08:31:52.604Z,12.40
2018-09-25T08:34:26.140Z,12.70
2018-09-25T08:36:59.805Z,12.70
2018-09-25T08:39:33.548Z,12.90
2018-09-25T08:42:07.056Z,12.80
2018-09-25T08:44:40.659Z,13.00
2018-09-25T08:47:14.347Z,13.30
2018-09-25T08:49:48.231Z,13.20
2018-09-25T08:52:28.253Z,13.00
2018-09-25T08:55:01.854Z,13.00
2018-09-25T08:57:35.490Z,13.00
2018-09-25T09:00:09.249Z,12.80
2018-09-25T09:02:42.923Z,12.80
2018-09-25T09:05:16.724Z,13.10
2018-09-25T09:07:50.504Z,13.60
2018-09-25T09:10:24.164Z,13.40
2018-09-25T09:12:57.946Z,12.90
2018-09-25T09:15:31.654Z,13.00
2018-09-25T09:18:05.253Z,13.20
2018-09-25T09:20:39.001Z,13.10
2018-09-25T09:23:12.766Z,13.10
2018-09-25T09:25:46.412Z,13.30
2018-09-25T09:28:20.028Z,13.60
2018-09-25T09:31:00.285Z,13.40
2018-09-25T09:33:33.849Z,13.60
2018-09-25T09:36:07.684Z,13.40
2018-09-25T09:38:41.435Z,13.90
2018-09-25T09:41:15.143Z,13.70
2018-09-25T09:43:48.719Z,13.50
2018-09-25T09:46:22.394Z,13.40
2018-09-25T09:48:56.123Z,13.40
2018-09-25T09:51:29.877Z,13.90
2018-09-25T09:54:03.530Z,14.00
2018-09-25T09:56:37.789Z,13.40
2018-09-25T09:59:11.962Z,13.40
2018-09-25T10:01:45.684Z,13.90
2018-09-25T10:04:19.554Z,14.30
2018-09-25T10:06:53.389Z,14.00
2018-09-25T10:09:26.779Z,13.80
2018-09-25T10:12:00.491Z,13.50
2018-09-25T10:14:34.129Z,13.30
2018-09-25T10:17:07.802Z,13.20
2018-09-25T10:19:41.500Z,13.00
2018-09-25T10:22:15.165Z,12.70
2018-09-25T10:24:48.855Z,12.80
2018-09-25T10:27:22.709Z,13.10
2018-09-25T10:29:56.646Z,13.00
2018-09-25T10:32:30.315Z,12.90
2018-09-25T10:35:04.032Z,13.00
2018-09-25T10:37:37.629Z,12.90
2018-09-25T10:40:11.285Z,12.90
2018-09-25T10:42:44.901Z,12.90
2018-09-25T10:45:18.536Z,13.10
2018-09-25T10:47:52.147Z,13.00
2018-09-25T10:50:25.954Z,13.30
2018-09-25T10:52:59.650Z,13.40
2018-09-25T10:55:33.291Z,13.40
2018-09-25T10:58:06.957Z,13.10
2018-09-25T11:00:40.786Z,12.60
2018-09-25T11:03:14.559Z,12.50
2018-09-25T11:05:48.008Z,12.20
2018-09-25T11:08:21.874Z,12.10
2018-09-25T11:10:55.545Z,12.40
2018-09-25T11:13:29.229Z,12.50
2018-09-25T11:16:02.902Z,12.80
2018-09-25T11:18:36.631Z,13.00
2018-09-25T11:21:10.267Z,12.80
2018-09-25T11:23:43.989Z,12.60
2018-09-25T11:26:17.881Z,12.70
2018-09-25T11:28:51.443Z,12.60
2018-09-25T11:31:25.789Z,12.60
2018-09-25T11:33:59.462Z,12.50
2018-09-25T11:36:33.092Z,12.20
2018-09-25T11:39:06.884Z,12.00
2018-09-25T11:41:40.651Z,12.30
2018-09-25T11:44:14.455Z,12.10
2018-09-25T11:46:48.269Z,12.30
2018-09-25T11:49:21.802Z,12.40
2018-09-25T11:51:55.596Z,12.60
2018-09-25T11:54:29.549Z,12.70
2018-09-25T11:57:03.150Z,12.70
2018-09-25T11:59:36.734Z,12.80
2018-09-25T12:02:10.368Z,12.60
2018-09-25T12:04:44.050Z,12.70
2018-09-25T12:07:17.580Z,12.70
2018-09-25T12:09:51.224Z,12.80
2018-09-25T12:12:25.065Z,12.70
2018-09-25T12:14:58.782Z,12.80
2018-09-25T12:17:32.428Z,12.80
2018-09-25T12:20:06.034Z,12.80
2018-09-25T12:22:39.724Z,12.70
2018-09-25T12:25:13.461Z,12.60
2018-09-25T12:27:47.012Z,12.70
2018-09-25T12:30:20.705Z,12.80
2018-09-25T12:32:54.519Z,12.80
2018-09-25T12:35:28.285Z,12.80
2018-09-25T12:38:01.973Z,12.80
2018-09-25T12:40:35.590Z,12.80
2018-09-25T12:43:09.171Z,12.90
2018-09-25T12:45:42.791Z,12.80
2018-09-25T12:48:16.551Z,12.90
2018-09-25T12:50:50.306Z,13.00
2018-09-25T12:53:24.009Z,13.10
2018-09-25T12:55:57.767Z,12.90
2018-09-25T12:58:31.420Z,13.00
2018-09-25T13:01:05.272Z,13.00
2018-09-25T13:03:39.171Z,12.90
2018-09-25T13:06:12.985Z,13.00
2018-09-25T13:08:46.607Z,13.00
2018-09-25T13:11:20.237Z,12.80
2018-09-25T13:13:53.946Z,12.70
2018-09-25T13:16:27.529Z,12.50
2018-09-25T13:19:01.429Z,12.60
2018-09-25T13:21:35.123Z,12.80
2018-09-25T13:24:08.878Z,13.00
2018-09-25T13:26:42.520Z,13.00
2018-09-25T13:29:16.257Z,13.10
2018-09-25T13:31:50.071Z,13.30
2018-09-25T13:34:23.791Z,13.30
2018-09-25T13:36:57.370Z,13.40
2018-09-25T13:39:31.082Z,13.60
2018-09-25T13:42:04.790Z,13.50
2018-09-25T13:44:38.545Z,13.50
2018-09-25T13:47:12.235Z,13.60
2018-09-25T13:49:46.089Z,13.30
2018-09-25T13:52:19.600Z,13.20
2018-09-25T13:54:53.378Z,13.20
2018-09-25T13:57:26.899Z,13.20
2018-09-25T14:00:00.542Z,13.20
2018-09-25T14:02:34.359Z,13.40
2018-09-25T14:05:07.907Z,13.40
2018-09-25T14:07:41.602Z,13.40
2018-09-25T14:10:15.220Z,13.20
2018-09-25T14:12:48.782Z,13.00
2018-09-25T14:15:22.511Z,12.80
2018-09-25T14:17:56.232Z,12.60
2018-09-25T14:20:29.917Z,12.60
2018-09-25T14:23:03.624Z,12.70
2018-09-25T14:25:37.315Z,12.70
2018-09-25T14:28:10.880Z,12.80
2018-09-25T14:30:44.509Z,12.80
2018-09-25T14:33:18.177Z,12.90
2018-09-25T14:35:51.994Z,12.90
2018-09-25T14:38:26.237Z,12.90
2018-09-25T14:40:59.801Z,12.90
2018-09-25T14:43:33.540Z,12.90
2018-09-25T14:46:07.195Z,12.90
2018-09-25T14:48:40.989Z,12.90
2018-09-25T14:51:14.566Z,12.90
2018-09-25T14:53:48.220Z,12.80
2018-09-25T14:56:21.861Z,12.70
2018-09-25T14:58:55.641Z,12.50
2018-09-25T15:01:29.171Z,12.60
2018-09-25T15:04:02.828Z,12.50
2018-09-25T15:06:36.633Z,12.50
2018-09-25T15:09:13.135Z,12.60
2018-09-25T15:11:47.339Z,12.60
2018-09-25T15:14:21.071Z,12.40
2018-09-25T15:16:54.830Z,12.40
2018-09-25T15:19:28.578Z,12.40
2018-09-25T15:22:02.655Z,12.40
2018-09-25T15:24:36.071Z,12.50
2018-09-25T15:27:09.797Z,12.50
2018-09-25T15:29:43.503Z,12.40
2018-09-25T15:32:17.210Z,12.40
2018-09-25T15:34:51.028Z,12.40
2018-09-25T15:37:24.605Z,12.40
2018-09-25T15:39:58.425Z,12.40
2018-09-25T15:42:32.086Z,12.30
2018-09-25T15:45:05.836Z,12.20
2018-09-25T15:47:39.468Z,12.20
2018-09-25T15:50:13.137Z,12.20
2018-09-25T15:52:46.893Z,12.10
2018-09-25T15:55:20.580Z,12.10
2018-09-25T15:57:54.349Z,12.00
2018-09-25T16:00:28.350Z,12.00
2018-09-25T16:03:01.974Z,12.00
2018-09-25T16:05:35.798Z,11.90
2018-09-25T16:08:09.483Z,12.00
2018-09-25T16:10:43.243Z,12.00
2018-09-25T16:13:16.843Z,11.90
2018-09-25T16:15:51.674Z,11.90
2018-09-25T16:18:25.386Z,11.80
2018-09-25T16:20:59.054Z,11.80
2018-09-25T16:23:32.475Z,11.70
2018-09-25T16:26:06.082Z,11.70
2018-09-25T16:28:40.008Z,11.70
2018-09-25T16:31:13.557Z,11.80
2018-09-25T16:33:47.188Z,11.70
2018-09-25T16:36:20.793Z,11.70
2018-09-25T16:38:54.529Z,11.60
2018-09-25T16:41:28.080Z,11.60
2018-09-25T16:44:01.702Z,11.50
2018-09-25T16:46:35.363Z,11.40
2018-09-25T16:49:09.031Z,11.40
2018-09-25T16:51:42.623Z,11.40
2018-09-25T16:54:16.478Z,11.30
2018-09-25T16:56:50.408Z,11.30
2018-09-25T16:59:24.037Z,11.20
2018-09-25T17:01:57.830Z,11.10
2018-09-25T17:04:31.492Z,11.10
2018-09-25T17:07:05.668Z,11.10
2018-09-25T17:09:39.356Z,11.00
2018-09-25T17:12:13.262Z,11.00
2018-09-25T17:14:46.987Z,10.90
2018-09-25T17:17:20.578Z,10.80
2018-09-25T17:19:54.172Z,10.80
2018-09-25T17:22:27.854Z,10.70
2018-09-25T17:25:01.594Z,10.70
2018-09-25T17:27:35.235Z,10.70
2018-09-25T17:30:08.937Z,10.60
2018-09-25T17:32:42.673Z,10.60
2018-09-25T17:35:16.275Z,10.60
2018-09-25T17:37:49.974Z,10.60
2018-09-25T17:40:23.598Z,10.60
2018-09-25T17:42:57.341Z,10.70
2018-09-25T17:45:31.150Z,10.60
2018-09-25T17:48:04.707Z,10.70
2018-09-25T17:50:38.396Z,10.70
2018-09-25T17:53:12.132Z,10.60
2018-09-25T17:55:45.810Z,10.60
2018-09-25T17:58:19.502Z,10.70
2018-09-25T18:00:53.493Z,10.60
2018-09-25T18:03:27.023Z,10.60
2018-09-25T18:06:00.754Z,10.60
2018-09-25T18:08:34.538Z,10.50
2018-09-25T18:11:08.096Z,10.50
2018-09-25T18:13:41.636Z,10.40
2018-09-25T18:16:21.799Z,10.30
2018-09-25T18:18:55.478Z,10.40
2018-09-25T18:21:35.809Z,10.40
2018-09-25T18:24:09.472Z,10.40
2018-09-25T18:26:43.561Z,10.40
2018-09-25T18:29:17.186Z,10.40
2018-09-25T18:31:50.866Z,10.40
2018-09-25T18:34:24.544Z,10.20
2018-09-25T18:36:58.271Z,10.20
2018-09-25T18:39:31.951Z,10.10
2018-09-25T18:42:05.597Z,10.20
2018-09-25T18:44:39.282Z,10.20
2018-09-25T18:47:13.398Z,10.20
2018-09-25T18:49:47.077Z,10.20
2018-09-25T18:52:20.771Z,10.20
2018-09-25T18:54:54.588Z,10.20
2018-09-25T18:57:28.116Z,10.10
2018-09-25T19:00:01.890Z,10.10
2018-09-25T19:02:35.734Z,10.10
2018-09-25T19:05:09.401Z,10.00
2018-09-25T19:07:42.992Z,10.10
2018-09-25T19:10:16.933Z,10.10
2018-09-25T19:12:50.730Z,10.10
2018-09-25T19:15:24.483Z,10.00
2018-09-25T19:17:58.114Z,9.90
2018-09-25T19:20:31.797Z,9.90
2018-09-25T19:23:05.705Z,9.90
2018-09-25T19:25:39.463Z,9.80
2018-09-25T19:28:13.107Z,9.60
2018-09-25T19:30:46.788Z,9.70
2018-09-25T19:33:21.149Z,9.70
2018-09-25T19:35:54.835Z,9.50
2018-09-25T19:38:28.589Z,9.50
2018-09-25T19:41:02.350Z,9.40
2018-09-25T19:43:36.152Z,9.30
2018-09-25T19:46:09.775Z,9.20
2018-09-25T19:48:43.414Z,9.10
2018-09-25T19:51:17.015Z,9.10
2018-09-25T19:53:50.627Z,9.10
2018-09-25T19:56:24.302Z,9.00
2018-09-25T19:58:58.228Z,9.00
2018-09-25T20:01:31.841Z,8.90
2018-09-25T20:04:05.719Z,8.90
2018-09-25T20:06:39.861Z,8.80
2018-09-25T20:09:14.245Z,8.80
2018-09-25T20:11:48.232Z,8.80
2018-09-25T20:14:21.862Z,8.80
2018-09-25T20:16:55.665Z,8.80
2018-09-25T20:19:29.492Z,8.80
2018-09-25T20:22:02.930Z,8.80
2018-09-25T20:24:36.588Z,8.70
2018-09-25T20:27:10.293Z,8.70
2018-09-25T20:29:43.995Z,8.70
2018-09-25T20:32:17.697Z,8.70
2018-09-25T20:34:51.315Z,8.70
2018-09-25T20:37:31.896Z,8.70
2018-09-25T20:40:05.476Z,8.70
2018-09-25T20:42:39.138Z,8.70
2018-09-25T20:45:12.918Z,8.80
2018-09-25T20:47:46.564Z,8.90
2018-09-25T20:50:20.278Z,8.90
2018-09-25T20:52:53.772Z,8.80
2018-09-25T20:55:27.553Z,8.80
2018-09-25T20:58:01.096Z,8.80
2018-09-25T21:00:34.640Z,8.60
2018-09-25T21:03:08.372Z,8.50
2018-09-25T21:05:41.853Z,8.50
2018-09-25T21:08:15.486Z,8.30
2018-09-25T21:10:49.166Z,8.20
2018-09-25T21:13:22.860Z,8.20
2018-09-25T21:15:56.530Z,8.10
2018-09-25T21:18:30.281Z,8.10
2018-09-25T21:21:04.058Z,8.20
2018-09-25T21:23:37.768Z,8.20
2018-09-25T21:26:11.578Z,8.20
2018-09-25T21:28:45.603Z,8.10
2018-09-25T21:31:19.224Z,8.20
2018-09-25T21:33:52.981Z,8.10
2018-09-25T21:36:26.531Z,8.00
2018-09-25T21:39:06.907Z,8.00
2018-09-25T21:41:40.458Z,7.90
2018-09-25T21:44:14.266Z,7.90
2018-09-25T21:46:47.908Z,7.90
2018-09-25T21:49:21.648Z,7.80
2018-09-25T21:51:55.362Z,7.90
2018-09-25T21:54:29.067Z,7.90
2018-09-25T21:57:02.786Z,8.00
2018-09-25T21:59:36.788Z,8.00
2018-09-25T22:02:10.391Z,8.10
2018-09-25T22:04:43.942Z,8.20
2018-09-25T22:07:17.599Z,8.20
2018-09-25T22:09:51.187Z,8.10
2018-09-25T22:12:24.889Z,7.90
2018-09-25T22:14:58.638Z,7.90
2018-09-25T22:17:32.298Z,7.90
2018-09-25T22:20:05.923Z,8.00
2018-09-25T22:22:39.597Z,8.00
2018-09-25T22:25:13.205Z,7.90
2018-09-25T22:27:46.955Z,7.90
2018-09-25T22:30:20.672Z,7.80
2018-09-25T22:32:54.357Z,7.60
2018-09-25T22:35:27.866Z,7.60
2018-09-25T22:38:01.542Z,7.50
2018-09-25T22:40:35.110Z,7.50
2018-09-25T22:43:09.287Z,7.50
2018-09-25T22:45:43.024Z,7.50
2018-09-25T22:48:16.627Z,7.50
2018-09-25T22:50:50.274Z,7.40
2018-09-25T22:53:24.035Z,7.40
2018-09-25T22:55:57.642Z,7.50
2018-09-25T22:58:31.277Z,7.40
2018-09-25T23:01:04.848Z,7.30
2018-09-25T23:03:38.454Z,7.30
2018-09-25T23:06:12.162Z,7.30
2018-09-25T23:08:45.794Z,7.20
2018-09-25T23:11:19.485Z,7.20
2018-09-25T23:13:53.152Z,7.10
2018-09-25T23:16:26.913Z,7.10
2018-09-25T23:19:00.659Z,7.10
2018-09-25T23:21:34.064Z,7.10
2018-09-25T23:24:07.717Z,7.10
2018-09-25T23:26:41.396Z,7.00
2018-09-25T23:29:15.071Z,7.00
2018-09-25T23:31:48.730Z,7.00
2018-09-25T23:34:22.429Z,7.10
2018-09-25T23:36:56.174Z,7.00
2018-09-25T23:39:34.300Z,7.00
2018-09-25T23:42:14.948Z,7.00
2018-09-25T23:44:48.598Z,7.00
2018-09-25T23:47:34.794Z,7.00
2018-09-25T23:50:09.126Z,7.00
2018-09-25T23:52:39.741Z,7.00
2018-09-25T23:55:12.168Z,7.00
2018-09-25T23:57:47.585Z,6.90
